sensor_id;sensor_type;location;lat;lon;timestamp;pressure;altitude;pressure_sealevel;temperature;humidity
64544;BME280;50936;51.660;5.616;2023-03-26T00:01:27;100368.94;;;8.32;100.00
64544;BME280;50936;51.660;5.616;2023-03-26T00:03:55;100363.38;;;8.35;100.00
64544;BME280;50936;51.660;5.616;2023-03-26T00:06:27;100370.25;;;8.39;100.00
64544;BME280;50936;51.660;5.616;2023-03-26T00:08:57;100366.41;;;8.43;100.00
64544;BME280;50936;51.660;5.616;2023-03-26T00:11:26;100369.84;;;8.45;100.00
64544;BME280;50936;51.660;5.616;2023-03-26T00:13:55;100367.06;;;8.47;100.00
64544;BME280;50936;51.660;5.616;2023-03-26T00:16:28;100367.72;;;8.51;100.00
64544;BME280;50936;51.660;5.616;2023-03-26T00:18:57;100370.41;;;8.51;100.00
64544;BME280;50936;51.660;5.616;2023-03-26T00:21:26;100371.06;;;8.54;100.00
64544;BME280;50936;51.660;5.616;2023-03-26T00:23:57;100369.22;;;8.55;100.00
64544;BME280;50936;51.660;5.616;2023-03-26T00:26:26;100367.53;;;8.54;100.00
64544;BME280;50936;51.660;5.616;2023-03-26T00:28:57;100365.59;;;8.56;100.00
64544;BME280;50936;51.660;5.616;2023-03-26T00:31:26;100353.06;;;8.55;100.00
64544;BME280;50936;51.660;5.616;2023-03-26T00:33:53;100353.94;;;8.55;100.00
64544;BME280;50936;51.660;5.616;2023-03-26T00:36:22;100354.16;;;8.52;100.00
64544;BME280;50936;51.660;5.616;2023-03-26T00:38:51;100348.13;;;8.48;100.00
64544;BME280;50936;51.660;5.616;2023-03-26T00:41:21;100348.31;;;8.45;100.00
64544;BME280;50936;51.660;5.616;2023-03-26T00:43:57;100338.66;;;8.43;100.00
64544;BME280;50936;51.660;5.616;2023-03-26T00:46:28;100335.28;;;8.39;100.00
64544;BME280;50936;51.660;5.616;2023-03-26T00:48:56;100338.38;;;8.33;100.00
64544;BME280;50936;51.660;5.616;2023-03-26T00:51:27;100330.91;;;8.24;100.00
64544;BME280;50936;51.660;5.616;2023-03-26T00:53:55;100324.34;;;8.15;100.00
64544;BME280;50936;51.660;5.616;2023-03-26T00:56:23;100327.78;;;8.04;100.00
64544;BME280;50936;51.660;5.616;2023-03-26T00:58:50;100323.00;;;7.95;100.00
64544;BME280;50936;51.660;5.616;2023-03-26T01:01:22;100328.78;;;7.89;100.00
64544;BME280;50936;51.660;5.616;2023-03-26T01:04:27;100323.16;;;7.79;100.00
64544;BME280;50936;51.660;5.616;2023-03-26T01:07:00;100328.94;;;7.73;100.00
64544;BME280;50936;51.660;5.616;2023-03-26T01:09:49;100323.84;;;7.68;100.00
64544;BME280;50936;51.660;5.616;2023-03-26T01:12:21;100326.53;;;7.68;100.00
64544;BME280;50936;51.660;5.616;2023-03-26T01:14:54;100312.16;;;7.69;100.00
64544;BME280;50936;51.660;5.616;2023-03-26T01:17:27;100304.84;;;7.71;100.00
64544;BME280;50936;51.660;5.616;2023-03-26T01:20:19;100299.66;;;7.68;100.00
64544;BME280;50936;51.660;5.616;2023-03-26T01:22:56;100293.44;;;7.68;100.00
64544;BME280;50936;51.660;5.616;2023-03-26T01:25:38;100294.09;;;7.71;100.00
64544;BME280;50936;51.660;5.616;2023-03-26T01:28:12;100279.69;;;7.72;100.00
64544;BME280;50936;51.660;5.616;2023-03-26T01:30:59;100282.16;;;7.76;100.00
64544;BME280;50936;51.660;5.616;2023-03-26T01:36:22;100269.91;;;7.71;100.00
64544;BME280;50936;51.660;5.616;2023-03-26T01:39:05;100270.41;;;7.64;100.00
64544;BME280;50936;51.660;5.616;2023-03-26T01:41:47;100262.84;;;7.56;100.00
64544;BME280;50936;51.660;5.616;2023-03-26T01:47:00;100254.28;;;7.37;100.00
64544;BME280;50936;51.660;5.616;2023-03-26T01:49:27;100247.69;;;7.28;100.00
64544;BME280;50936;51.660;5.616;2023-03-26T01:51:56;100239.72;;;7.26;100.00
64544;BME280;50936;51.660;5.616;2023-03-26T01:54:27;100241.84;;;7.21;100.00
64544;BME280;50936;51.660;5.616;2023-03-26T01:57:12;100244.75;;;7.18;100.00
64544;BME280;50936;51.660;5.616;2023-03-26T02:00:12;100238.06;;;7.11;100.00
64544;BME280;50936;51.660;5.616;2023-03-26T02:06:05;100235.75;;;7.05;100.00
64544;BME280;50936;51.660;5.616;2023-03-26T02:11:17;100233.38;;;7.00;100.00
64544;BME280;50936;51.660;5.616;2023-03-26T02:13:45;100227.34;;;6.97;100.00
64544;BME280;50936;51.660;5.616;2023-03-26T02:16:14;100222.81;;;6.97;100.00
64544;BME280;50936;51.660;5.616;2023-03-26T02:18:44;100222.91;;;6.96;100.00
64544;BME280;50936;51.660;5.616;2023-03-26T02:21:15;100213.16;;;6.94;100.00
64544;BME280;50936;51.660;5.616;2023-03-26T02:23:50;100214.28;;;6.90;100.00
64544;BME280;50936;51.660;5.616;2023-03-26T02:26:32;100198.19;;;6.90;100.00
64544;BME280;50936;51.660;5.616;2023-03-26T02:29:06;100209.88;;;6.89;100.00
64544;BME280;50936;51.660;5.616;2023-03-26T02:31:35;100194.84;;;6.87;100.00
64544;BME280;50936;51.660;5.616;2023-03-26T02:34:03;100191.59;;;6.82;100.00
64544;BME280;50936;51.660;5.616;2023-03-26T02:36:33;100180.19;;;6.78;100.00
64544;BME280;50936;51.660;5.616;2023-03-26T02:39:03;100186.59;;;6.75;100.00
64544;BME280;50936;51.660;5.616;2023-03-26T02:41:34;100192.28;;;6.71;100.00
64544;BME280;50936;51.660;5.616;2023-03-26T02:44:06;100188.75;;;6.70;100.00
64544;BME280;50936;51.660;5.616;2023-03-26T02:46:53;100183.56;;;6.67;100.00
64544;BME280;50936;51.660;5.616;2023-03-26T02:49:39;100179.16;;;6.66;100.00
64544;BME280;50936;51.660;5.616;2023-03-26T02:52:07;100176.56;;;6.65;100.00
64544;BME280;50936;51.660;5.616;2023-03-26T02:54:34;100174.00;;;6.63;100.00
64544;BME280;50936;51.660;5.616;2023-03-26T02:57:17;100171.09;;;6.66;100.00
64544;BME280;50936;51.660;5.616;2023-03-26T03:00:03;100168.13;;;6.71;100.00
64544;BME280;50936;51.660;5.616;2023-03-26T03:02:34;100159.84;;;6.74;100.00
64544;BME280;50936;51.660;5.616;2023-03-26T03:05:23;100159.09;;;6.72;100.00
64544;BME280;50936;51.660;5.616;2023-03-26T03:08:11;100162.25;;;6.79;100.00
64544;BME280;50936;51.660;5.616;2023-03-26T03:13:43;100144.56;;;6.76;100.00
64544;BME280;50936;51.660;5.616;2023-03-26T03:16:14;100150.09;;;6.73;100.00
64544;BME280;50936;51.660;5.616;2023-03-26T03:18:41;100136.13;;;6.68;100.00
64544;BME280;50936;51.660;5.616;2023-03-26T03:21:09;100136.97;;;6.68;100.00
64544;BME280;50936;51.660;5.616;2023-03-26T03:23:36;100132.66;;;6.66;100.00
64544;BME280;50936;51.660;5.616;2023-03-26T03:26:15;100119.81;;;6.71;100.00
64544;BME280;50936;51.660;5.616;2023-03-26T03:28:51;100119.22;;;6.80;100.00
64544;BME280;50936;51.660;5.616;2023-03-26T03:31:19;100123.41;;;6.84;100.00
64544;BME280;50936;51.660;5.616;2023-03-26T03:33:47;100118.06;;;6.84;100.00
64544;BME280;50936;51.660;5.616;2023-03-26T03:36:17;100120.06;;;6.81;100.00
64544;BME280;50936;51.660;5.616;2023-03-26T03:39:03;100114.31;;;6.87;100.00
64544;BME280;50936;51.660;5.616;2023-03-26T03:41:31;100112.78;;;6.83;100.00
64544;BME280;50936;51.660;5.616;2023-03-26T03:44:01;100112.44;;;6.74;100.00
64544;BME280;50936;51.660;5.616;2023-03-26T03:46:30;100106.41;;;6.71;100.00
64544;BME280;50936;51.660;5.616;2023-03-26T03:48:57;100110.78;;;6.72;100.00
64544;BME280;50936;51.660;5.616;2023-03-26T03:51:30;100105.25;;;6.75;100.00
64544;BME280;50936;51.660;5.616;2023-03-26T03:54:10;100102.47;;;6.77;100.00
64544;BME280;50936;51.660;5.616;2023-03-26T03:56:56;100101.59;;;6.76;100.00
64544;BME280;50936;51.660;5.616;2023-03-26T03:59:34;100102.47;;;6.77;100.00
64544;BME280;50936;51.660;5.616;2023-03-26T04:02:05;100097.00;;;6.78;100.00
64544;BME280;50936;51.660;5.616;2023-03-26T04:04:38;100097.75;;;6.80;100.00
64544;BME280;50936;51.660;5.616;2023-03-26T04:07:09;100083.56;;;6.78;100.00
64544;BME280;50936;51.660;5.616;2023-03-26T04:10:07;100083.34;;;6.81;100.00
64544;BME280;50936;51.660;5.616;2023-03-26T04:12:54;100079.53;;;6.85;100.00
64544;BME280;50936;51.660;5.616;2023-03-26T04:15:37;100072.56;;;6.96;100.00
64544;BME280;50936;51.660;5.616;2023-03-26T04:18:05;100070.63;;;6.98;100.00
64544;BME280;50936;51.660;5.616;2023-03-26T04:20:38;100057.78;;;7.03;100.00
64544;BME280;50936;51.660;5.616;2023-03-26T04:23:17;100060.25;;;7.06;100.00
64544;BME280;50936;51.660;5.616;2023-03-26T04:25:50;100052.97;;;7.08;100.00
64544;BME280;50936;51.660;5.616;2023-03-26T04:28:32;100058.53;;;7.05;100.00
64544;BME280;50936;51.660;5.616;2023-03-26T04:31:23;100048.97;;;7.01;100.00
64544;BME280;50936;51.660;5.616;2023-03-26T04:34:05;100048.09;;;7.00;100.00
64544;BME280;50936;51.660;5.616;2023-03-26T04:36:41;100037.47;;;6.99;100.00
64544;BME280;50936;51.660;5.616;2023-03-26T04:39:11;100039.19;;;7.00;100.00
64544;BME280;50936;51.660;5.616;2023-03-26T04:41:59;100031.91;;;7.02;100.00
64544;BME280;50936;51.660;5.616;2023-03-26T04:44:32;100033.41;;;7.06;100.00
64544;BME280;50936;51.660;5.616;2023-03-26T04:47:05;100027.38;;;7.02;100.00
64544;BME280;50936;51.660;5.616;2023-03-26T04:49:40;100019.34;;;7.02;100.00
64544;BME280;50936;51.660;5.616;2023-03-26T04:52:10;100009.53;;;7.01;100.00
64544;BME280;50936;51.660;5.616;2023-03-26T04:54:58;100006.53;;;6.93;100.00
64544;BME280;50936;51.660;5.616;2023-03-26T04:57:38;99995.34;;;6.86;100.00
64544;BME280;50936;51.660;5.616;2023-03-26T05:00:34;100002.19;;;6.78;100.00
64544;BME280;50936;51.660;5.616;2023-03-26T05:03:01;99989.09;;;6.73;100.00
64544;BME280;50936;51.660;5.616;2023-03-26T05:05:28;99983.06;;;6.69;100.00
64544;BME280;50936;51.660;5.616;2023-03-26T05:07:57;99978.78;;;6.67;100.00
64544;BME280;50936;51.660;5.616;2023-03-26T05:10:24;99974.91;;;6.71;100.00
64544;BME280;50936;51.660;5.616;2023-03-26T05:13:00;99981.03;;;6.73;100.00
64544;BME280;50936;51.660;5.616;2023-03-26T05:15:35;99977.50;;;6.72;100.00
64544;BME280;50936;51.660;5.616;2023-03-26T05:18:18;99974.91;;;6.71;100.00
64544;BME280;50936;51.660;5.616;2023-03-26T05:20:49;99966.09;;;6.69;100.00
64544;BME280;50936;51.660;5.616;2023-03-26T05:23:16;99966.09;;;6.69;100.00
64544;BME280;50936;51.660;5.616;2023-03-26T05:25:50;99965.44;;;6.65;100.00
64544;BME280;50936;51.660;5.616;2023-03-26T05:28:19;99957.50;;;6.64;100.00
64544;BME280;50936;51.660;5.616;2023-03-26T05:31:05;99954.91;;;6.62;100.00
64544;BME280;50936;51.660;5.616;2023-03-26T05:33:37;99946.97;;;6.61;100.00
64544;BME280;50936;51.660;5.616;2023-03-26T05:36:10;99943.53;;;6.59;100.00
64544;BME280;50936;51.660;5.616;2023-03-26T05:38:57;99941.81;;;6.58;100.00
64544;BME280;50936;51.660;5.616;2023-03-26T05:42:02;99929.38;;;6.57;100.00
64544;BME280;50936;51.660;5.616;2023-03-26T05:44:41;99931.09;;;6.58;100.00
64544;BME280;50936;51.660;5.616;2023-03-26T05:47:16;99923.81;;;6.60;100.00
64544;BME280;50936;51.660;5.616;2023-03-26T05:49:43;99925.50;;;6.61;100.00
64544;BME280;50936;51.660;5.616;2023-03-26T05:52:12;99918.19;;;6.63;100.00
64544;BME280;50936;51.660;5.616;2023-03-26T05:55:00;99917.16;;;6.65;100.00
64544;BME280;50936;51.660;5.616;2023-03-26T05:57:46;99917.06;;;6.67;100.00
64544;BME280;50936;51.660;5.616;2023-03-26T06:00:33;99906.84;;;6.72;100.00
64544;BME280;50936;51.660;5.616;2023-03-26T06:03:00;99915.44;;;6.77;100.00
64544;BME280;50936;51.660;5.616;2023-03-26T06:05:47;99914.25;;;6.81;100.00
64544;BME280;50936;51.660;5.616;2023-03-26T06:08:27;99903.75;;;6.78;100.00
64544;BME280;50936;51.660;5.616;2023-03-26T06:11:03;99904.72;;;6.77;100.00
64544;BME280;50936;51.660;5.616;2023-03-26T06:13:36;99907.41;;;6.77;100.00
64544;BME280;50936;51.660;5.616;2023-03-26T06:16:04;99907.50;;;6.75;100.00
64544;BME280;50936;51.660;5.616;2023-03-26T06:18:38;99891.50;;;6.74;100.00
64544;BME280;50936;51.660;5.616;2023-03-26T06:21:24;99906.44;;;6.78;100.00
64544;BME280;50936;51.660;5.616;2023-03-26T06:24:00;99897.41;;;6.79;100.00
64544;BME280;50936;51.660;5.616;2023-03-26T06:26:36;99899.13;;;6.80;100.00
64544;BME280;50936;51.660;5.616;2023-03-26T06:29:15;99890.09;;;6.81;100.00
64544;BME280;50936;51.660;5.616;2023-03-26T06:31:57;99892.03;;;6.79;100.00
64544;BME280;50936;51.660;5.616;2023-03-26T06:34:49;99888.41;;;6.80;100.00
64544;BME280;50936;51.660;5.616;2023-03-26T06:37:16;99888.41;;;6.80;100.00
64544;BME280;50936;51.660;5.616;2023-03-26T06:39:45;99894.53;;;6.82;100.00
64544;BME280;50936;51.660;5.616;2023-03-26T06:42:15;99894.31;;;6.85;100.00
64544;BME280;50936;51.660;5.616;2023-03-26T06:45:00;99897.97;;;6.84;100.00
64544;BME280;50936;51.660;5.616;2023-03-26T06:47:33;99895.28;;;6.84;100.00
64544;BME280;50936;51.660;5.616;2023-03-26T06:50:19;99888.41;;;6.80;100.00
64544;BME280;50936;51.660;5.616;2023-03-26T06:53:04;99890.34;;;6.78;100.00
64544;BME280;50936;51.660;5.616;2023-03-26T06:55:43;99893.78;;;6.80;100.00
64544;BME280;50936;51.660;5.616;2023-03-26T06:58:22;99888.94;;;6.85;100.00
64544;BME280;50936;51.660;5.616;2023-03-26T07:01:08;99898.50;;;6.89;100.00
64544;BME280;50936;51.660;5.616;2023-03-26T07:03:53;99888.63;;;6.90;100.00
64544;BME280;50936;51.660;5.616;2023-03-26T07:06:51;99893.13;;;6.89;100.00
64544;BME280;50936;51.660;5.616;2023-03-26T07:09:37;99886.78;;;6.90;100.00
64544;BME280;50936;51.660;5.616;2023-03-26T07:12:22;99882.41;;;6.89;100.00
64544;BME280;50936;51.660;5.616;2023-03-26T07:15:08;99881.53;;;6.89;100.00
64544;BME280;50936;51.660;5.616;2023-03-26T07:18:11;99885.19;;;6.88;100.00
64544;BME280;50936;51.660;5.616;2023-03-26T07:20:43;99882.41;;;6.89;100.00
64544;BME280;50936;51.660;5.616;2023-03-26T07:23:11;99880.47;;;6.91;100.00
64544;BME280;50936;51.660;5.616;2023-03-26T07:26:25;99871.22;;;6.96;100.00
64544;BME280;50936;51.660;5.616;2023-03-26T07:29:34;99874.66;;;6.98;100.00
64544;BME280;50936;51.660;5.616;2023-03-26T07:32:39;99870.28;;;6.97;100.00
64544;BME280;50936;51.660;5.616;2023-03-26T07:35:49;99873.16;;;6.93;100.00
64544;BME280;50936;51.660;5.616;2023-03-26T07:48:00;99864.47;;;6.90;100.00
64544;BME280;50936;51.660;5.616;2023-03-26T07:50:54;99859.19;;;6.88;100.00
64544;BME280;50936;51.660;5.616;2023-03-26T07:53:29;99859.19;;;6.88;100.00
64544;BME280;50936;51.660;5.616;2023-03-26T07:57:07;99867.78;;;6.93;100.00
64544;BME280;50936;51.660;5.616;2023-03-26T08:00:05;99862.00;;;7.00;100.00
64544;BME280;50936;51.660;5.616;2023-03-26T08:03:11;99857.91;;;7.07;100.00
64544;BME280;50936;51.660;5.616;2023-03-26T08:06:04;99854.47;;;7.05;100.00
64544;BME280;50936;51.660;5.616;2023-03-26T08:15:02;99856.63;;;7.00;100.00
64544;BME280;50936;51.660;5.616;2023-03-26T08:20:50;99852.31;;;7.10;100.00
64544;BME280;50936;51.660;5.616;2023-03-26T08:24:12;99853.41;;;7.07;100.00
64544;BME280;50936;51.660;5.616;2023-03-26T08:29:58;99852.75;;;7.04;100.00
64544;BME280;50936;51.660;5.616;2023-03-26T08:32:36;99852.03;;;7.02;100.00
64544;BME280;50936;51.660;5.616;2023-03-26T08:35:04;99848.44;;;7.01;100.00
64544;BME280;50936;51.660;5.616;2023-03-26T08:37:31;99845.91;;;7.00;100.00
64544;BME280;50936;51.660;5.616;2023-03-26T08:39:58;99845.66;;;7.03;100.00
64544;BME280;50936;51.660;5.616;2023-03-26T08:42:51;99852.75;;;7.04;100.00
64544;BME280;50936;51.660;5.616;2023-03-26T08:55:05;99840.59;;;7.24;100.00
64544;BME280;50936;51.660;5.616;2023-03-26T09:01:10;99830.13;;;7.45;100.00
64544;BME280;50936;51.660;5.616;2023-03-26T09:10:23;99826.47;;;7.46;100.00
64544;BME280;50936;51.660;5.616;2023-03-26T09:31:37;99823.19;;;7.66;100.00
64544;BME280;50936;51.660;5.616;2023-03-26T09:37:32;99817.13;;;7.76;100.00
64544;BME280;50936;51.660;5.616;2023-03-26T09:40:35;99817.88;;;7.78;100.00
64544;BME280;50936;51.660;5.616;2023-03-26T09:43:33;99816.91;;;7.79;100.00
64544;BME280;50936;51.660;5.616;2023-03-26T09:46:33;99816.03;;;7.78;100.00
64544;BME280;50936;51.660;5.616;2023-03-26T10:00:50;99818.19;;;7.86;100.00
64544;BME280;50936;51.660;5.616;2023-03-26T10:15:02;99822.19;;;8.04;100.00
64544;BME280;50936;51.660;5.616;2023-03-26T10:26:46;99820.66;;;8.00;100.00
64544;BME280;50936;51.660;5.616;2023-03-26T10:32:37;99819.22;;;8.07;100.00
64544;BME280;50936;51.660;5.616;2023-03-26T10:41:15;99825.44;;;8.21;100.00
64544;BME280;50936;51.660;5.616;2023-03-26T10:49:58;99822.31;;;8.14;100.00
64544;BME280;50936;51.660;5.616;2023-03-26T10:52:33;99835.03;;;8.12;100.00
64544;BME280;50936;51.660;5.616;2023-03-26T10:55:41;99823.19;;;8.15;100.00
64544;BME280;50936;51.660;5.616;2023-03-26T10:58:25;99834.56;;;8.18;100.00
64544;BME280;50936;51.660;5.616;2023-03-26T11:01:23;99832.25;;;8.14;100.00
64544;BME280;50936;51.660;5.616;2023-03-26T11:04:04;99827.72;;;8.14;100.00
64544;BME280;50936;51.660;5.616;2023-03-26T11:06:57;99837.38;;;8.17;100.00
64544;BME280;50936;51.660;5.616;2023-03-26T11:10:00;99837.38;;;8.17;100.00
64544;BME280;50936;51.660;5.616;2023-03-26T11:12:52;99849.06;;;8.04;100.00
64544;BME280;50936;51.660;5.616;2023-03-26T11:16:03;99848.88;;;7.95;100.00
64544;BME280;50936;51.660;5.616;2023-03-26T11:21:36;99843.34;;;7.85;100.00
64544;BME280;50936;51.660;5.616;2023-03-26T11:25:20;99842.47;;;7.84;100.00
64544;BME280;50936;51.660;5.616;2023-03-26T11:28:45;99863.88;;;7.86;100.00
64544;BME280;50936;51.660;5.616;2023-03-26T11:31:27;99850.44;;;7.86;100.00
64544;BME280;50936;51.660;5.616;2023-03-26T11:34:20;99859.47;;;7.85;100.00
64544;BME280;50936;51.660;5.616;2023-03-26T11:36:54;99856.50;;;7.77;100.00
64544;BME280;50936;51.660;5.616;2023-03-26T11:39:29;99858.84;;;7.81;100.00
64544;BME280;50936;51.660;5.616;2023-03-26T11:42:08;99855.41;;;7.79;100.00
64544;BME280;50936;51.660;5.616;2023-03-26T11:45:05;99867.75;;;7.82;100.00
64544;BME280;50936;51.660;5.616;2023-03-26T11:47:52;99859.00;;;7.91;100.00
64544;BME280;50936;51.660;5.616;2023-03-26T11:50:29;99867.59;;;7.96;100.00
64544;BME280;50936;51.660;5.616;2023-03-26T11:53:10;99863.94;;;7.97;100.00
64544;BME280;50936;51.660;5.616;2023-03-26T11:55:47;99867.16;;;8.02;100.00
64544;BME280;50936;51.660;5.616;2023-03-26T11:58:49;99871.84;;;8.12;100.00
64544;BME280;50936;51.660;5.616;2023-03-26T12:01:25;99872.97;;;8.20;100.00
64544;BME280;50936;51.660;5.616;2023-03-26T12:04:03;99873.47;;;8.25;100.00
64544;BME280;50936;51.660;5.616;2023-03-26T12:06:36;99871.53;;;8.27;100.00
64544;BME280;50936;51.660;5.616;2023-03-26T12:09:03;99871.94;;;8.34;100.00
64544;BME280;50936;51.660;5.616;2023-03-26T12:11:41;99875.03;;;8.41;100.00
64544;BME280;50936;51.660;5.616;2023-03-26T12:14:17;99875.25;;;8.38;100.00
64544;BME280;50936;51.660;5.616;2023-03-26T12:17:03;99871.03;;;8.46;100.00
64544;BME280;50936;51.660;5.616;2023-03-26T12:19:36;99872.28;;;8.54;100.00
64544;BME280;50936;51.660;5.616;2023-03-26T12:22:26;99882.81;;;8.57;100.00
64544;BME280;50936;51.660;5.616;2023-03-26T12:25:16;99879.06;;;8.71;100.00
64544;BME280;50936;51.660;5.616;2023-03-26T12:27:47;99883.25;;;8.86;100.00
64544;BME280;50936;51.660;5.616;2023-03-26T12:32:47;99883.19;;;8.63;100.00
64544;BME280;50936;51.660;5.616;2023-03-26T12:35:24;99886.00;;;8.62;100.00
64544;BME280;50936;51.660;5.616;2023-03-26T12:37:55;99885.28;;;8.60;100.00
64544;BME280;50936;51.660;5.616;2023-03-26T12:40:39;99885.91;;;8.63;100.00
64544;BME280;50936;51.660;5.616;2023-03-26T12:43:30;99889.72;;;8.72;100.00
64544;BME280;50936;51.660;5.616;2023-03-26T12:46:34;99892.63;;;8.69;100.00
64544;BME280;50936;51.660;5.616;2023-03-26T12:49:21;99888.50;;;8.76;100.00
64544;BME280;50936;51.660;5.616;2023-03-26T12:51:52;99898.06;;;8.92;100.00
64544;BME280;50936;51.660;5.616;2023-03-26T12:54:38;99896.59;;;8.88;100.00
64544;BME280;50936;51.660;5.616;2023-03-26T13:00:39;99908.56;;;8.72;100.00
64544;BME280;50936;51.660;5.616;2023-03-26T13:10:26;99913.38;;;8.44;100.00
64544;BME280;50936;51.660;5.616;2023-03-26T13:16:44;99914.88;;;8.12;100.00
64544;BME280;50936;51.660;5.616;2023-03-26T13:19:39;99921.38;;;7.96;100.00
64544;BME280;50936;51.660;5.616;2023-03-26T13:22:31;99927.63;;;7.84;100.00
64544;BME280;50936;51.660;5.616;2023-03-26T13:31:26;99929.81;;;7.79;100.00
64544;BME280;50936;51.660;5.616;2023-03-26T13:37:24;99936.66;;;7.96;100.00
64544;BME280;50936;51.660;5.616;2023-03-26T13:43:30;99940.09;;;8.22;100.00
64544;BME280;50936;51.660;5.616;2023-03-26T13:49:36;99952.75;;;8.08;100.00
64544;BME280;50936;51.660;5.616;2023-03-26T13:52:12;99949.75;;;8.00;100.00
64544;BME280;50936;51.660;5.616;2023-03-26T13:55:19;99955.53;;;8.07;100.00
64544;BME280;50936;51.660;5.616;2023-03-26T13:58:12;99959.53;;;8.01;100.00
64544;BME280;50936;51.660;5.616;2023-03-26T14:01:11;99966.13;;;7.97;100.00
64544;BME280;50936;51.660;5.616;2023-03-26T14:04:01;99960.53;;;7.87;100.00
64544;BME280;50936;51.660;5.616;2023-03-26T14:06:50;99967.22;;;7.82;100.00
64544;BME280;50936;51.660;5.616;2023-03-26T14:09:59;99980.44;;;7.85;100.00
64544;BME280;50936;51.660;5.616;2023-03-26T14:15:25;99990.66;;;7.80;100.00
64544;BME280;50936;51.660;5.616;2023-03-26T14:24:03;99998.41;;;7.71;100.00
64544;BME280;50936;51.660;5.616;2023-03-26T14:46:30;100035.47;;;7.15;100.00
64544;BME280;50936;51.660;5.616;2023-03-26T14:49:31;100032.97;;;7.12;100.00
64544;BME280;50936;51.660;5.616;2023-03-26T14:52:23;100035.75;;;7.10;100.00
64544;BME280;50936;51.660;5.616;2023-03-26T14:55:03;100039.22;;;7.12;100.00
64544;BME280;50936;51.660;5.616;2023-03-26T14:57:59;100043.72;;;7.12;100.00
64544;BME280;50936;51.660;5.616;2023-03-26T15:32:12;100088.84;;;7.85;100.00
64544;BME280;50936;51.660;5.616;2023-03-26T15:34:59;100090.03;;;7.81;100.00
64544;BME280;50936;51.660;5.616;2023-03-26T15:58:34;100132.72;;;7.73;100.00
64544;BME280;50936;51.660;5.616;2023-03-26T16:10:36;100153.88;;;7.78;100.00
64544;BME280;50936;51.660;5.616;2023-03-26T16:13:34;100164.44;;;7.81;100.00
64544;BME280;50936;51.660;5.616;2023-03-26T16:34:47;100203.34;;;7.62;100.00
64544;BME280;50936;51.660;5.616;2023-03-26T16:52:21;100252.25;;;7.40;100.00
64544;BME280;50936;51.660;5.616;2023-03-26T16:55:27;100262.13;;;7.40;100.00
64544;BME280;50936;51.660;5.616;2023-03-26T17:00:53;100280.19;;;7.38;100.00
64544;BME280;50936;51.660;5.616;2023-03-26T17:03:40;100281.16;;;7.37;100.00
64544;BME280;50936;51.660;5.616;2023-03-26T17:21:03;100326.28;;;7.17;100.00
64544;BME280;50936;51.660;5.616;2023-03-26T17:23:50;100329.34;;;7.11;100.00
64544;BME280;50936;51.660;5.616;2023-03-26T17:35:36;100361.84;;;6.92;100.00
64544;BME280;50936;51.660;5.616;2023-03-26T17:40:56;100385.34;;;6.88;100.00
64544;BME280;50936;51.660;5.616;2023-03-26T17:43:45;100382.09;;;6.83;100.00
64544;BME280;50936;51.660;5.616;2023-03-26T17:49:12;100391.09;;;6.82;100.00
64544;BME280;50936;51.660;5.616;2023-03-26T17:52:04;100398.19;;;6.83;100.00
64544;BME280;50936;51.660;5.616;2023-03-26T17:54:46;100400.97;;;6.82;100.00
64544;BME280;50936;51.660;5.616;2023-03-26T17:57:22;100411.19;;;6.75;100.00
64544;BME280;50936;51.660;5.616;2023-03-26T17:59:57;100421.34;;;6.70;100.00
64544;BME280;50936;51.660;5.616;2023-03-26T18:02:40;100417.91;;;6.68;100.00
64544;BME280;50936;51.660;5.616;2023-03-26T18:05:16;100431.41;;;6.66;100.00
64544;BME280;50936;51.660;5.616;2023-03-26T18:16:07;100449.88;;;6.57;100.00
64544;BME280;50936;51.660;5.616;2023-03-26T18:18:56;100467.88;;;6.54;100.00
64544;BME280;50936;51.660;5.616;2023-03-26T18:24:14;100473.97;;;6.42;100.00
64544;BME280;50936;51.660;5.616;2023-03-26T18:26:49;100474.31;;;6.36;100.00
64544;BME280;50936;51.660;5.616;2023-03-26T18:29:23;100487.28;;;6.28;100.00
64544;BME280;50936;51.660;5.616;2023-03-26T18:32:00;100496.31;;;6.27;100.00
64544;BME280;50936;51.660;5.616;2023-03-26T18:34:33;100501.84;;;6.24;100.00
64544;BME280;50936;51.660;5.616;2023-03-26T18:37:30;100513.44;;;6.24;100.00
64544;BME280;50936;51.660;5.616;2023-03-26T18:42:39;100518.22;;;6.19;100.00
64544;BME280;50936;51.660;5.616;2023-03-26T18:45:25;100524.75;;;6.13;100.00
64544;BME280;50936;51.660;5.616;2023-03-26T18:48:05;100529.34;;;6.11;100.00
64544;BME280;50936;51.660;5.616;2023-03-26T18:50:40;100533.00;;;6.10;100.00
64544;BME280;50936;51.660;5.616;2023-03-26T18:53:17;100536.00;;;6.04;100.00
64544;BME280;50936;51.660;5.616;2023-03-26T18:55:47;100547.84;;;6.00;100.00
64544;BME280;50936;51.660;5.616;2023-03-26T18:58:27;100544.38;;;5.98;100.00
64544;BME280;50936;51.660;5.616;2023-03-26T19:00:58;100554.34;;;5.96;100.00
64544;BME280;50936;51.660;5.616;2023-03-26T19:03:40;100563.34;;;5.93;100.00
64544;BME280;50936;51.660;5.616;2023-03-26T19:06:11;100581.44;;;5.90;100.00
64544;BME280;50936;51.660;5.616;2023-03-26T19:08:42;100580.81;;;5.85;100.00
64544;BME280;50936;51.660;5.616;2023-03-26T19:11:14;100577.38;;;5.83;100.00
64544;BME280;50936;51.660;5.616;2023-03-26T19:13:43;100591.56;;;5.85;100.00
64544;BME280;50936;51.660;5.616;2023-03-26T19:16:25;100593.59;;;5.79;100.00
64544;BME280;50936;51.660;5.616;2023-03-26T19:19:01;100609.53;;;5.83;100.00
64544;BME280;50936;51.660;5.616;2023-03-26T19:21:33;100611.75;;;5.74;100.00
64544;BME280;50936;51.660;5.616;2023-03-26T19:24:02;100611.09;;;5.69;100.00
64544;BME280;50936;51.660;5.616;2023-03-26T19:26:30;100616.53;;;5.68;100.00
64544;BME280;50936;51.660;5.616;2023-03-26T19:28:58;100617.66;;;5.64;100.00
64544;BME280;50936;51.660;5.616;2023-03-26T19:31:32;100630.44;;;5.58;100.00
64544;BME280;50936;51.660;5.616;2023-03-26T19:34:12;100621.38;;;5.61;100.00